createdAt,value
2022-09-26T00:01:16.106Z,3.80
2022-09-26T00:03:48.779Z,3.00
2022-09-26T00:06:18.116Z,2.07
2022-09-26T00:08:46.287Z,1.30
2022-09-26T00:11:16.921Z,4.37
2022-09-26T00:13:43.869Z,2.47
2022-09-26T00:16:12.064Z,2.67
2022-09-26T00:18:40.016Z,4.67
2022-09-26T00:21:14.231Z,3.60
2022-09-26T00:23:42.092Z,7.83
2022-09-26T00:26:10.598Z,4.50
2022-09-26T00:28:38.071Z,2.40
2022-09-26T00:31:12.048Z,2.20
2022-09-26T00:33:39.218Z,1.43
2022-09-26T00:36:07.122Z,2.30
2022-09-26T00:38:34.974Z,1.50
2022-09-26T00:41:02.260Z,3.10
2022-09-26T00:43:32.308Z,1.50
2022-09-26T00:46:05.432Z,1.50
2022-09-26T00:48:35.181Z,2.60
2022-09-26T00:51:03.106Z,1.80
2022-09-26T00:53:37.081Z,2.80
2022-09-26T00:56:10.811Z,3.30
2022-09-26T00:58:44.718Z,2.83
2022-09-26T01:01:12.265Z,6.77
2022-09-26T01:03:41.621Z,2.60
2022-09-26T01:06:08.749Z,3.17
2022-09-26T01:08:41.533Z,2.73
2022-09-26T01:11:12.505Z,5.50
2022-09-26T01:13:43.499Z,8.77
2022-09-26T01:16:10.584Z,3.60
2022-09-26T01:18:37.925Z,3.60
2022-09-26T01:21:16.381Z,2.43
2022-09-26T01:24:01.675Z,2.40
2022-09-26T01:27:05.103Z,1.83
2022-09-26T01:29:56.236Z,1.70
2022-09-26T01:32:50.378Z,7.80
2022-09-26T01:35:44.916Z,4.40
2022-09-26T01:38:39.447Z,8.20
2022-09-26T01:41:22.326Z,4.73
2022-09-26T01:43:58.927Z,1.70
2022-09-26T01:46:37.003Z,2.40
2022-09-26T01:49:09.819Z,2.17
2022-09-26T01:51:44.461Z,2.20
2022-09-26T01:54:17.947Z,1.90
2022-09-26T01:56:48.191Z,2.87
2022-09-26T01:59:28.056Z,4.50
2022-09-26T02:02:00.912Z,1.40
2022-09-26T02:04:34.855Z,2.40
2022-09-26T02:07:14.579Z,1.70
2022-09-26T02:10:04.741Z,2.83
2022-09-26T02:12:39.552Z,3.53
2022-09-26T02:15:11.142Z,6.50
2022-09-26T02:17:45.185Z,2.43
2022-09-26T02:20:34.897Z,1.97
2022-09-26T02:23:04.875Z,2.10
2022-09-26T02:25:32.942Z,1.40
2022-09-26T02:28:00.221Z,1.70
2022-09-26T02:30:27.145Z,1.90
2022-09-26T02:32:54.006Z,3.40
2022-09-26T02:35:39.490Z,2.20
2022-09-26T02:38:07.106Z,1.37
2022-09-26T02:41:22.720Z,1.90
2022-09-26T02:44:19.866Z,1.43
2022-09-26T02:46:56.819Z,1.90
2022-09-26T02:50:03.970Z,2.97
2022-09-26T02:52:55.414Z,1.87
2022-09-26T02:55:26.565Z,1.67
2022-09-26T02:58:05.521Z,2.20
2022-09-26T03:01:10.655Z,1.90
2022-09-26T03:03:52.562Z,2.13
2022-09-26T03:06:26.715Z,1.70
2022-09-26T03:08:56.690Z,1.90
2022-09-26T03:11:27.161Z,1.53
2022-09-26T03:13:56.121Z,2.03
2022-09-26T03:16:25.845Z,1.70
2022-09-26T03:19:15.659Z,2.13
2022-09-26T03:21:42.844Z,1.37
2022-09-26T03:24:09.808Z,2.97
2022-09-26T03:26:37.148Z,3.10
2022-09-26T03:29:04.042Z,2.00
2022-09-26T03:31:31.413Z,2.63
2022-09-26T03:33:58.362Z,4.80
2022-09-26T03:36:25.486Z,4.90
2022-09-26T03:38:52.328Z,8.57
2022-09-26T03:41:19.615Z,4.40
2022-09-26T03:43:46.424Z,2.13
2022-09-26T03:46:13.451Z,3.67
2022-09-26T03:48:40.343Z,7.20
2022-09-26T03:51:14.590Z,4.17
2022-09-26T03:53:47.050Z,1.50
2022-09-26T03:56:16.334Z,5.20
2022-09-26T03:58:43.687Z,2.43
2022-09-26T04:01:12.711Z,2.40
2022-09-26T04:03:46.461Z,4.50
2022-09-26T04:06:20.798Z,2.97
2022-09-26T04:08:50.133Z,2.23
2022-09-26T04:11:22.892Z,1.53
2022-09-26T04:13:52.876Z,3.00
2022-09-26T04:16:23.156Z,2.10
2022-09-26T04:18:56.585Z,2.97
2022-09-26T04:21:24.785Z,4.30
2022-09-26T04:23:53.315Z,2.93
2022-09-26T04:26:23.693Z,3.13
2022-09-26T04:28:54.879Z,3.40
2022-09-26T04:31:27.515Z,2.03
2022-09-26T04:33:57.857Z,1.83
2022-09-26T04:36:24.643Z,1.63
2022-09-26T04:38:51.959Z,2.00
2022-09-26T04:41:20.672Z,2.30
2022-09-26T04:43:48.377Z,1.70
2022-09-26T04:46:21.622Z,2.50
2022-09-26T04:48:51.492Z,2.10
2022-09-26T04:51:20.177Z,2.07
2022-09-26T04:53:47.153Z,2.10
2022-09-26T04:56:15.441Z,2.40
2022-09-26T04:58:43.388Z,2.60
2022-09-26T05:01:12.336Z,1.60
2022-09-26T05:03:39.502Z,2.43
2022-09-26T05:06:09.009Z,1.50
2022-09-26T05:08:36.692Z,2.20
2022-09-26T05:11:03.951Z,1.93
2022-09-26T05:13:31.790Z,2.00
2022-09-26T05:16:00.118Z,3.27
2022-09-26T05:18:28.066Z,2.97
2022-09-26T05:20:57.275Z,2.10
2022-09-26T05:23:45.273Z,1.50
2022-09-26T05:26:34.027Z,1.63
2022-09-26T05:29:07.757Z,2.77
2022-09-26T05:31:37.930Z,2.80
2022-09-26T05:34:07.671Z,1.97
2022-09-26T05:36:34.760Z,2.90
2022-09-26T05:39:02.345Z,3.00
2022-09-26T05:41:31.157Z,5.87
2022-09-26T05:43:58.385Z,1.80
2022-09-26T05:46:27.125Z,1.83
2022-09-26T05:48:55.592Z,4.80
2022-09-26T05:51:23.395Z,5.90
2022-09-26T05:53:50.432Z,5.70
2022-09-26T05:56:19.629Z,4.70
2022-09-26T05:58:47.347Z,10.10
2022-09-26T06:01:18.817Z,8.97
2022-09-26T06:03:46.884Z,6.13
2022-09-26T06:06:18.963Z,7.37
2022-09-26T06:08:47.108Z,10.43
2022-09-26T06:11:20.774Z,5.63
2022-09-26T06:13:47.733Z,9.77
2022-09-26T06:16:20.574Z,4.03
2022-09-26T06:18:50.691Z,3.27
2022-09-26T06:21:19.111Z,3.63
2022-09-26T06:23:46.150Z,2.93
2022-09-26T06:26:21.848Z,2.47
2022-09-26T06:28:53.267Z,2.70
2022-09-26T06:31:22.034Z,2.17
2022-09-26T06:33:53.394Z,2.23
2022-09-26T06:36:21.928Z,5.90
2022-09-26T06:38:49.228Z,2.83
2022-09-26T06:41:16.511Z,2.00
2022-09-26T06:43:47.390Z,7.13
2022-09-26T06:46:15.429Z,2.77
2022-09-26T06:48:42.673Z,3.50
2022-09-26T06:51:13.764Z,2.63
2022-09-26T06:53:40.829Z,3.37
2022-09-26T06:56:08.207Z,3.70
2022-09-26T06:58:35.083Z,2.83
2022-09-26T07:01:02.529Z,3.00
2022-09-26T07:03:32.222Z,2.57
2022-09-26T07:05:59.335Z,2.70
2022-09-26T07:09:00.423Z,2.93
2022-09-26T07:14:05.486Z,2.73
2022-09-26T07:16:32.402Z,2.07
2022-09-26T07:18:59.281Z,2.10
2022-09-26T07:21:26.296Z,2.10
2022-09-26T07:23:57.717Z,2.83
2022-09-26T07:26:24.671Z,2.37
2022-09-26T07:28:54.760Z,2.33
2022-09-26T07:31:23.557Z,2.53
2022-09-26T07:33:50.548Z,2.30
2022-09-26T07:36:18.391Z,2.40
2022-09-26T07:38:48.567Z,2.27
2022-09-26T07:41:15.929Z,1.07
2022-09-26T07:44:34.561Z,2.47
2022-09-26T07:46:49.100Z,2.80
2022-09-26T07:49:35.555Z,4.60
2022-09-26T07:52:02.450Z,4.23
2022-09-26T07:54:29.362Z,4.77
2022-09-26T07:56:56.372Z,3.60
2022-09-26T07:59:23.466Z,3.50
2022-09-26T08:01:53.198Z,7.17
2022-09-26T08:04:20.479Z,3.30
2022-09-26T08:06:47.520Z,3.40
2022-09-26T08:09:16.416Z,4.90
2022-09-26T08:11:43.480Z,3.03
2022-09-26T08:14:11.795Z,2.67
2022-09-26T08:16:41.935Z,3.17
2022-09-26T08:19:17.207Z,2.40
2022-09-26T08:21:44.263Z,2.80
2022-09-26T08:24:11.241Z,3.50
2022-09-26T08:26:44.080Z,4.50
2022-09-26T08:29:12.500Z,2.73
2022-09-26T08:31:39.845Z,5.00
2022-09-26T08:34:07.727Z,3.90
2022-09-26T08:36:37.390Z,3.50
2022-09-26T08:39:05.003Z,5.53
2022-09-26T08:41:41.221Z,4.80
2022-09-26T08:44:32.400Z,4.47
2022-09-26T08:47:07.028Z,3.43
2022-09-26T08:49:50.550Z,7.13
2022-09-26T08:52:35.890Z,5.13
2022-09-26T08:55:12.056Z,9.40
2022-09-26T08:57:41.478Z,11.10
2022-09-26T09:00:21.969Z,2.37
2022-09-26T09:03:33.183Z,2.50
2022-09-26T09:06:13.672Z,9.07
2022-09-26T09:08:44.355Z,4.07
2022-09-26T09:11:20.609Z,4.20
2022-09-26T09:14:13.391Z,10.60
2022-09-26T09:17:00.673Z,3.33
2022-09-26T09:19:50.607Z,7.40
2022-09-26T09:22:44.972Z,6.50
2022-09-26T09:25:22.870Z,5.70
2022-09-26T09:28:08.458Z,3.90
2022-09-26T09:30:45.660Z,2.70
2022-09-26T09:33:18.388Z,6.60
2022-09-26T09:35:52.012Z,3.87
2022-09-26T09:38:34.575Z,3.13
2022-09-26T09:41:12.432Z,9.70
2022-09-26T09:43:51.608Z,7.17
2022-09-26T09:46:41.177Z,8.37
2022-09-26T09:49:08.792Z,6.13
2022-09-26T09:51:48.475Z,7.37
2022-09-26T09:54:30.726Z,5.10
2022-09-26T09:57:11.618Z,4.00
2022-09-26T10:00:07.664Z,5.20
2022-09-26T10:03:11.303Z,3.40
2022-09-26T10:05:45.369Z,3.10
2022-09-26T10:08:19.572Z,4.23
2022-09-26T10:10:58.559Z,4.37
2022-09-26T10:13:28.191Z,3.10
2022-09-26T10:16:01.038Z,3.50
2022-09-26T10:18:31.768Z,3.37
2022-09-26T10:21:12.799Z,3.73
2022-09-26T10:23:45.454Z,7.63
2022-09-26T10:26:16.660Z,7.33
2022-09-26T10:28:48.369Z,15.23
2022-09-26T10:31:42.702Z,12.23
2022-09-26T10:34:28.118Z,12.77
2022-09-26T10:36:56.122Z,7.50
2022-09-26T10:39:44.456Z,6.47
2022-09-26T10:42:23.016Z,26.70
2022-09-26T10:44:51.114Z,20.63
2022-09-26T10:47:25.983Z,13.80
2022-09-26T10:50:16.829Z,8.50
2022-09-26T10:52:49.746Z,12.17
2022-09-26T10:55:31.336Z,9.60
2022-09-26T10:58:07.929Z,4.93
2022-09-26T11:00:42.295Z,11.43
2022-09-26T11:03:24.429Z,7.43
2022-09-26T11:05:57.408Z,5.73
2022-09-26T11:39:35.551Z,8.07
2022-09-26T11:45:53.746Z,3.77
2022-09-26T11:48:36.299Z,26.63
2022-09-26T11:51:42.078Z,29.50
2022-09-26T11:54:34.442Z,19.63
2022-09-26T11:57:16.265Z,16.10
2022-09-26T12:00:02.942Z,17.87
2022-09-26T12:03:05.791Z,9.87
2022-09-26T12:05:44.594Z,13.47
2022-09-26T12:08:14.983Z,12.20
2022-09-26T12:10:50.548Z,5.53
2022-09-26T12:14:00.706Z,8.53
2022-09-26T12:16:47.491Z,9.67
2022-09-26T12:19:41.619Z,8.57
2022-09-26T12:22:29.155Z,8.43
2022-09-26T12:25:22.954Z,5.10
2022-09-26T12:28:15.434Z,8.07
2022-09-26T12:30:52.333Z,5.70
2022-09-26T12:33:36.931Z,4.27
2022-09-26T12:36:41.936Z,5.53
2022-09-26T12:39:27.143Z,2.80
2022-09-26T12:42:26.750Z,7.60
2022-09-26T12:45:16.874Z,5.00
2022-09-26T12:48:15.963Z,16.63
2022-09-26T12:54:35.539Z,7.93
2022-09-26T13:00:16.814Z,7.23
2022-09-26T13:03:32.880Z,9.53
2022-09-26T13:06:28.303Z,15.93
2022-09-26T13:09:13.572Z,12.97
2022-09-26T13:12:31.797Z,4.63
2022-09-26T13:15:44.021Z,4.50
2022-09-26T13:18:26.736Z,3.17
2022-09-26T13:21:03.303Z,2.57
2022-09-26T13:23:44.988Z,3.90
2022-09-26T13:26:25.605Z,5.57
2022-09-26T13:29:24.482Z,3.57
2022-09-26T13:32:23.820Z,2.60
2022-09-26T13:35:21.897Z,3.50
2022-09-26T13:38:16.069Z,3.03
2022-09-26T13:41:02.853Z,1.57
2022-09-26T13:43:53.550Z,4.37
2022-09-26T13:49:54.385Z,2.03
2022-09-26T13:52:52.558Z,4.30
2022-09-26T13:55:25.616Z,3.63
2022-09-26T13:58:04.117Z,3.77
2022-09-26T14:03:42.387Z,4.10
2022-09-26T14:06:30.048Z,5.70
2022-09-26T14:09:30.867Z,2.40
2022-09-26T14:12:25.727Z,3.30
2022-09-26T14:15:27.339Z,3.90
2022-09-26T14:18:27.312Z,2.97
2022-09-26T14:21:07.752Z,2.50
2022-09-26T14:23:47.426Z,1.93
2022-09-26T14:26:28.418Z,2.00
2022-09-26T14:29:11.174Z,1.93
2022-09-26T14:31:42.335Z,1.43
2022-09-26T14:34:28.448Z,2.30
2022-09-26T14:37:00.819Z,2.60
2022-09-26T14:39:40.179Z,2.80
2022-09-26T14:42:23.168Z,1.87
2022-09-26T15:09:28.698Z,2.97
2022-09-26T15:12:06.915Z,1.90
2022-09-26T15:14:48.638Z,1.73
2022-09-26T15:17:32.069Z,1.73
2022-09-26T15:20:02.511Z,1.47
2022-09-26T15:22:31.657Z,1.47
2022-09-26T15:25:10.339Z,1.90
2022-09-26T15:27:37.625Z,2.40
2022-09-26T15:30:18.124Z,1.73
2022-09-26T15:32:49.221Z,2.10
2022-09-26T15:35:17.095Z,2.10
2022-09-26T15:37:45.892Z,1.47
2022-09-26T15:40:26.370Z,3.13
2022-09-26T15:43:13.788Z,2.20
2022-09-26T15:45:46.822Z,2.23
2022-09-26T15:48:32.876Z,2.30
2022-09-26T15:51:06.392Z,2.23
2022-09-26T15:53:36.546Z,1.60
2022-09-26T15:56:26.628Z,1.70
2022-09-26T15:59:12.661Z,1.70
2022-09-26T16:01:45.537Z,3.10
2022-09-26T16:04:21.542Z,1.57
2022-09-26T16:06:53.258Z,13.77
2022-09-26T16:09:32.229Z,8.57
2022-09-26T16:12:02.970Z,5.57
2022-09-26T16:14:37.845Z,17.13
2022-09-26T16:17:32.605Z,1.53
2022-09-26T16:20:18.012Z,2.80
2022-09-26T16:25:59.182Z,2.20
2022-09-26T16:28:53.780Z,2.93
2022-09-26T16:31:42.773Z,2.60
2022-09-26T16:34:22.399Z,1.63
2022-09-26T16:36:50.798Z,2.80
2022-09-26T16:39:31.385Z,3.93
2022-09-26T16:42:14.651Z,2.40
2022-09-26T16:44:49.961Z,2.10
2022-09-26T16:47:45.071Z,2.80
2022-09-26T16:50:26.573Z,2.53
2022-09-26T16:52:54.522Z,4.20
2022-09-26T16:55:22.710Z,4.13
2022-09-26T16:57:59.852Z,3.43
2022-09-26T17:00:52.644Z,4.20
2022-09-26T17:03:32.811Z,3.80
2022-09-26T17:06:00.584Z,2.10
2022-09-26T17:08:28.370Z,1.60
2022-09-26T17:10:58.637Z,2.03
2022-09-26T17:13:28.300Z,2.30
2022-09-26T17:15:57.460Z,2.50
2022-09-26T17:18:29.603Z,2.80
2022-09-26T17:20:59.265Z,1.80
2022-09-26T17:23:39.845Z,1.67
2022-09-26T17:26:07.933Z,3.00
2022-09-26T17:28:39.289Z,2.23
2022-09-26T17:31:09.029Z,2.30
2022-09-26T17:33:42.044Z,3.60
2022-09-26T17:36:18.297Z,2.20
2022-09-26T17:38:45.984Z,2.77
2022-09-26T17:41:13.082Z,2.87
2022-09-26T17:43:41.654Z,3.27
2022-09-26T17:46:16.165Z,2.73
2022-09-26T17:48:44.832Z,3.23
2022-09-26T17:51:14.527Z,2.70
2022-09-26T17:53:51.114Z,2.03
2022-09-26T17:56:21.560Z,2.10
2022-09-26T17:58:49.839Z,1.60
2022-09-26T18:01:30.471Z,2.10
2022-09-26T18:04:02.563Z,1.97
2022-09-26T18:06:32.808Z,1.80
2022-09-26T18:09:05.575Z,1.77
2022-09-26T18:11:34.706Z,2.40
2022-09-26T18:14:04.709Z,2.10
2022-09-26T18:16:31.912Z,3.40
2022-09-26T18:19:04.533Z,1.97
2022-09-26T18:21:34.238Z,3.20
2022-09-26T18:24:02.938Z,3.33
2022-09-26T18:26:33.129Z,5.77
2022-09-26T18:29:05.499Z,1.53
2022-09-26T18:31:36.653Z,2.10
2022-09-26T18:34:03.821Z,2.60
2022-09-26T18:36:34.050Z,2.23
2022-09-26T18:39:01.504Z,3.00
2022-09-26T18:41:29.575Z,2.30
2022-09-26T18:44:00.285Z,2.20
2022-09-26T18:46:29.177Z,3.80
2022-09-26T18:49:01.977Z,2.67
2022-09-26T18:51:29.087Z,3.50
2022-09-26T18:53:56.101Z,2.90
2022-09-26T18:56:41.941Z,2.70
2022-09-26T18:59:10.327Z,4.30
2022-09-26T19:01:41.532Z,2.73
2022-09-26T19:04:23.133Z,5.13
2022-09-26T19:06:59.220Z,3.50
2022-09-26T19:09:33.956Z,3.53
2022-09-26T19:12:02.469Z,3.40
2022-09-26T19:14:30.699Z,4.27
2022-09-26T19:16:58.216Z,3.00
2022-09-26T19:19:26.144Z,4.87
2022-09-26T19:22:08.152Z,4.10
2022-09-26T19:24:38.019Z,5.87
2022-09-26T19:27:15.431Z,6.30
2022-09-26T19:29:52.222Z,4.73
2022-09-26T19:32:23.351Z,5.03
2022-09-26T19:34:54.427Z,3.40
2022-09-26T19:37:21.642Z,6.53
2022-09-26T19:39:48.603Z,5.40
2022-09-26T19:42:15.863Z,2.80
2022-09-26T19:44:43.400Z,4.90
2022-09-26T19:47:18.622Z,3.10
2022-09-26T19:49:48.862Z,5.57
2022-09-26T19:52:17.547Z,5.50
2022-09-26T19:54:45.444Z,5.30
2022-09-26T19:57:17.610Z,4.50
2022-09-26T19:59:45.858Z,7.63
2022-09-26T20:02:22.579Z,5.30
2022-09-26T20:04:54.052Z,7.63
2022-09-26T20:07:21.165Z,4.40
2022-09-26T20:09:48.284Z,3.67
2022-09-26T20:12:15.818Z,4.17
2022-09-26T20:14:43.188Z,2.80
2022-09-26T20:20:07.113Z,5.10
2022-09-26T20:22:34.445Z,4.00
2022-09-26T20:25:03.384Z,3.47
2022-09-26T20:27:30.553Z,4.50
2022-09-26T20:30:16.456Z,5.00
2022-09-26T20:32:43.365Z,4.27
2022-09-26T20:35:17.338Z,4.50
2022-09-26T20:37:44.820Z,5.67
2022-09-26T20:40:24.232Z,3.10
2022-09-26T20:43:01.991Z,3.80
2022-09-26T20:45:33.843Z,3.70
2022-09-26T20:48:01.162Z,4.73
2022-09-26T20:50:35.563Z,7.37
2022-09-26T20:53:02.568Z,5.10
2022-09-26T20:55:32.553Z,4.90
2022-09-26T20:57:59.833Z,5.50
2022-09-26T21:00:26.863Z,5.17
2022-09-26T21:02:57.331Z,6.40
2022-09-26T21:05:27.588Z,5.87
2022-09-26T21:07:56.886Z,7.53
2022-09-26T21:10:24.105Z,4.33
2022-09-26T21:12:51.491Z,4.00
2022-09-26T21:15:19.002Z,8.43
2022-09-26T21:17:47.204Z,10.03
2022-09-26T21:20:17.808Z,7.80
2022-09-26T21:22:45.139Z,13.80
2022-09-26T21:25:17.589Z,10.30
2022-09-26T21:27:50.994Z,13.97
2022-09-26T21:30:18.452Z,13.40
2022-09-26T21:32:59.824Z,8.60
2022-09-26T21:35:32.152Z,6.23
2022-09-26T21:38:01.092Z,5.23
2022-09-26T21:40:31.316Z,10.80
2022-09-26T21:43:10.110Z,6.27
2022-09-26T21:45:37.287Z,6.40
2022-09-26T21:48:04.515Z,6.93
2022-09-26T21:50:31.531Z,5.10
2022-09-26T21:53:11.129Z,7.00
2022-09-26T21:55:43.255Z,10.27
2022-09-26T21:58:15.846Z,16.33
2022-09-26T22:00:42.843Z,6.73
2022-09-26T22:03:10.174Z,7.07
2022-09-26T22:05:37.357Z,6.40
2022-09-26T22:08:04.331Z,3.77
2022-09-26T22:10:31.447Z,4.73
2022-09-26T22:12:58.500Z,9.20
2022-09-26T22:15:25.443Z,5.67
2022-09-26T22:17:53.633Z,4.47
2022-09-26T22:20:21.816Z,3.50
2022-09-26T22:22:49.363Z,4.40
2022-09-26T22:25:16.591Z,3.93
2022-09-26T22:27:43.650Z,3.50
2022-09-26T22:30:11.236Z,3.70
2022-09-26T22:32:38.442Z,4.70
2022-09-26T22:35:05.953Z,4.10
2022-09-26T22:37:33.062Z,10.73
2022-09-26T22:40:00.073Z,4.77
2022-09-26T22:42:27.134Z,3.60
2022-09-26T22:44:54.128Z,4.70
2022-09-26T22:47:21.085Z,3.73
2022-09-26T22:49:49.336Z,2.63
2022-09-26T22:52:16.474Z,5.30
2022-09-26T22:54:44.554Z,3.63
2022-09-26T22:57:11.722Z,5.03
2022-09-26T22:59:39.344Z,7.87
2022-09-26T23:02:06.758Z,8.47
2022-09-26T23:04:54.333Z,14.37
2022-09-26T23:07:21.925Z,10.13
2022-09-26T23:10:08.707Z,4.53
2022-09-26T23:12:55.562Z,5.70
2022-09-26T23:15:50.651Z,3.70
2022-09-26T23:18:39.538Z,4.40
2022-09-26T23:21:31.432Z,4.43
2022-09-26T23:23:58.963Z,13.63
2022-09-26T23:38:48.617Z,7.53
2022-09-26T23:41:36.900Z,8.80
2022-09-26T23:44:22.954Z,9.57
